Time;durP1;ratioP1;P1;durP2;ratioP2;P2;SDS_P1;SDS_P2;PMS_P1;PMS_P2;Temp;Humidity;BMP_temperature;BMP_pressure;BME280_temperature;BME280_humidity;BME280_pressure;Samples;Min_cycle;Max_cycle;Signal;HPM_P1;HPM_P2
2021/10/16 00:00:10;;;;;;;7.43;4.15;;;;;;;8.86;100.00;99854.38;5063867;28;20137;-61
2021/10/16 00:02:57;;;;;;;8.40;4.38;;;;;;;8.87;100.00;99862.28;5064095;28;20094;-62
2021/10/16 00:05:44;;;;;;;7.53;4.30;;;;;;;8.88;100.00;99856.13;5064401;28;20101;-65
2021/10/16 00:08:28;;;;;;;7.30;3.92;;;;;;;8.88;100.00;99860.53;5039255;28;20051;-64
2021/10/16 00:11:14;;;;;;;7.70;4.40;;;;;;;8.85;100.00;99853.50;5045799;28;20067;-62
2021/10/16 00:13:59;;;;;;;7.28;3.92;;;;;;;8.79;100.00;99850.91;5063123;28;20054;-61
2021/10/16 00:16:43;;;;;;;7.60;4.35;;;;;;;8.78;100.00;99845.66;5065321;28;20052;-63
2021/10/16 00:19:28;;;;;;;9.23;4.05;;;;;;;8.76;100.00;99856.28;5064953;28;20059;-62
2021/10/16 00:22:13;;;;;;;7.85;4.93;;;;;;;8.72;100.00;99843.97;5058068;28;20052;-62
2021/10/16 00:24:58;;;;;;;9.57;4.65;;;;;;;8.63;100.00;99843.22;5066898;28;20132;-62
2021/10/16 00:27:42;;;;;;;7.00;4.18;;;;;;;8.63;100.00;99841.41;5053681;28;20595;-64
2021/10/16 00:30:27;;;;;;;7.57;3.95;;;;;;;8.66;100.00;99853.72;5050380;28;20056;-60
2021/10/16 00:33:12;;;;;;;5.45;3.90;;;;;;;8.60;100.00;99852.03;5064985;28;20056;-61
2021/10/16 00:35:58;;;;;;;8.68;4.20;;;;;;;8.55;100.00;99853.00;5065928;28;20071;-62
2021/10/16 00:38:44;;;;;;;10.30;4.38;;;;;;;8.58;100.00;99852.94;5046397;28;20056;-62
2021/10/16 00:41:28;;;;;;;17.83;5.40;;;;;;;8.56;100.00;99837.13;5060969;28;20159;-62
2021/10/16 00:44:14;;;;;;;19.13;6.50;;;;;;;8.68;100.00;99854.59;5051092;28;20806;-63
2021/10/16 00:47:00;;;;;;;15.25;4.80;;;;;;;8.79;100.00;99850.06;5054392;28;20569;-62
2021/10/16 00:49:44;;;;;;;9.10;4.38;;;;;;;8.72;100.00;99859.84;5050929;28;20047;-65
2021/10/16 00:52:29;;;;;;;11.13;5.45;;;;;;;8.78;100.00;99840.38;5062228;28;20058;-62
2021/10/16 00:55:16;;;;;;;11.45;5.03;;;;;;;8.86;100.00;99849.06;5064611;28;20384;-63
2021/10/16 00:58:02;;;;;;;9.40;4.60;;;;;;;8.86;100.00;99857.91;5065270;28;20189;-63
2021/10/16 01:00:46;;;;;;;7.95;4.18;;;;;;;8.86;100.00;99849.06;5063733;28;20079;-63
2021/10/16 01:03:31;;;;;;;9.30;4.88;;;;;;;8.94;100.00;99853.41;5059745;28;20136;-63
2021/10/16 01:06:16;;;;;;;8.05;4.97;;;;;;;8.98;100.00;99846.31;5061053;28;20090;-63
2021/10/16 01:09:01;;;;;;;8.18;4.47;;;;;;;9.00;100.00;99849.81;5045944;28;20074;-62
2021/10/16 01:11:54;;;;;;;9.10;5.20;;;;;;;8.98;100.00;99847.16;5061823;28;20432;-64
2021/10/16 01:14:47;;;;;;;9.35;5.18;;;;;;;9.10;100.00;99849.66;5064527;28;20072;-63
2021/10/16 01:17:34;;;;;;;8.63;4.57;;;;;;;9.11;100.00;99854.03;5064214;28;20091;-65
2021/10/16 01:20:22;;;;;;;9.07;4.85;;;;;;;9.21;100.00;99849.50;5048064;28;20053;-63
2021/10/16 01:23:07;;;;;;;11.68;5.25;;;;;;;9.25;100.00;99843.28;5064385;28;20059;-63
2021/10/16 01:25:52;;;;;;;11.20;5.32;;;;;;;9.21;100.00;99837.19;5049262;28;20050;-61
2021/10/16 01:28:37;;;;;;;10.70;5.50;;;;;;;9.16;100.00;99854.88;5062093;28;20126;-66
2021/10/16 01:31:26;;;;;;;8.77;4.80;;;;;;;9.25;100.00;99846.81;5049613;28;20048;-62
2021/10/16 01:34:10;;;;;;;10.48;5.22;;;;;;;9.29;100.00;99837.94;5059125;28;20090;-64
2021/10/16 01:36:56;;;;;;;10.05;5.70;;;;;;;9.34;100.00;99838.75;5052152;28;20114;-64
2021/10/16 01:39:44;;;;;;;11.60;5.45;;;;;;;9.36;100.00;99836.09;5060488;28;20043;-62
2021/10/16 01:42:29;;;;;;;12.75;4.93;;;;;;;9.36;100.00;99834.31;5057343;28;20067;-64
2021/10/16 01:45:20;;;;;;;7.88;4.88;;;;;;;9.42;100.00;99839.50;5067106;28;20452;-61
2021/10/16 01:48:07;;;;;;;7.90;4.95;;;;;;;9.40;100.00;99841.31;5066453;28;20097;-62
2021/10/16 01:50:55;;;;;;;8.90;5.28;;;;;;;9.47;100.00;99832.38;5067728;28;20148;-61
2021/10/16 01:53:51;;;;;;;5.95;4.00;;;;;;;9.47;100.00;99827.09;5049816;28;20047;-63
2021/10/16 01:56:36;;;;;;;10.20;5.10;;;;;;;9.43;100.00;99830.66;5060194;28;20059;-61
2021/10/16 01:59:24;;;;;;;8.52;4.32;;;;;;;9.32;100.00;99842.31;5069302;28;20052;-62
2021/10/16 02:02:28;;;;;;;7.00;4.20;;;;;;;9.31;100.00;99827.34;5067705;28;20470;-62
2021/10/16 02:05:44;;;;;;;9.55;4.80;;;;;;;9.35;100.00;99824.63;5068593;28;20100;-62
2021/10/16 02:08:48;;;;;;;14.55;6.35;;;;;;;9.29;100.00;99811.50;5069054;28;20550;-63
2021/10/16 02:11:33;;;;;;;10.05;5.35;;;;;;;9.40;100.00;99811.31;5066039;28;20079;-63
2021/10/16 02:14:17;;;;;;;21.00;6.72;;;;;;;9.28;100.00;99804.47;5061550;28;20052;-62
2021/10/16 02:17:05;;;;;;;22.65;5.78;;;;;;;9.27;100.00;99797.38;5066553;28;20850;-62
2021/10/16 02:19:49;;;;;;;19.52;5.88;;;;;;;9.29;100.00;99797.38;5066734;28;20122;-62
2021/10/16 02:22:35;;;;;;;16.70;5.47;;;;;;;9.25;100.00;99807.13;5066392;28;20125;-63
2021/10/16 02:25:21;;;;;;;19.48;6.03;;;;;;;9.27;100.00;99797.38;5081452;28;20143;-62
2021/10/16 02:28:06;;;;;;;21.13;5.65;;;;;;;9.39;100.00;99799.00;5034041;28;20043;-61
2021/10/16 02:30:52;;;;;;;15.15;6.35;;;;;;;9.36;100.00;99794.63;5060750;28;20059;-60
2021/10/16 02:33:37;;;;;;;23.30;6.95;;;;;;;9.33;100.00;99794.66;5066736;28;20408;-62
2021/10/16 02:36:22;;;;;;;19.42;5.97;;;;;;;9.37;100.00;99795.47;5059738;28;20151;-62
2021/10/16 02:39:06;;;;;;;;;;;;;;;9.41;100.00;99799.84;5067094;28;20056;-61
2021/10/16 02:41:58;;;;;;;12.90;5.90;;;;;;;9.35;100.00;99792.84;5067057;28;19971;-62
2021/10/16 02:44:45;;;;;;;16.92;5.93;;;;;;;9.40;100.00;99787.50;5034529;28;20052;-61
2021/10/16 02:47:31;;;;;;;15.13;6.40;;;;;;;9.38;100.00;99784.88;5048790;28;20408;-62
2021/10/16 02:50:17;;;;;;;10.88;5.82;;;;;;;9.36;100.00;99780.50;5053069;28;20056;-60
2021/10/16 02:53:01;;;;;;;10.82;5.40;;;;;;;9.35;100.00;99795.50;5081208;28;20066;-62
2021/10/16 02:55:46;;;;;;;18.65;7.22;;;;;;;9.41;100.00;99789.25;5054849;28;20080;-62
2021/10/16 02:58:30;;;;;;;15.60;7.35;;;;;;;9.39;100.00;99783.13;5046768;28;20087;-64
2021/10/16 03:01:15;;;;;;;12.27;6.57;;;;;;;9.46;100.00;99795.38;5052461;28;20055;-61
2021/10/16 03:03:59;;;;;;;12.90;6.63;;;;;;;9.47;100.00;99792.66;5067093;28;20428;-61
2021/10/16 03:06:45;;;;;;;12.00;6.97;;;;;;;9.46;100.00;99798.03;5065328;28;20485;-61
2021/10/16 03:09:31;;;;;;;15.13;6.90;;;;;;;9.47;100.00;99794.47;5067012;28;20182;-60
2021/10/16 03:12:15;;;;;;;13.50;6.45;;;;;;;9.46;100.00;99790.94;5067670;28;20078;-63
2021/10/16 03:15:06;;;;;;;13.07;6.28;;;;;;;9.48;100.00;99790.91;5068309;28;20047;-61
2021/10/16 03:17:54;;;;;;;9.95;6.78;;;;;;;9.51;100.00;99786.44;5057235;28;20409;-62
2021/10/16 03:20:44;;;;;;;15.00;6.30;;;;;;;9.47;100.00;99792.66;5080983;28;20090;-61
2021/10/16 03:23:31;;;;;;;14.52;6.55;;;;;;;9.48;100.00;99783.88;5083460;28;20059;-62
2021/10/16 03:26:16;;;;;;;15.68;7.22;;;;;;;9.43;100.00;99766.31;5072097;28;20516;-62
2021/10/16 03:29:01;;;;;;;20.35;6.30;;;;;;;9.46;100.00;99796.22;5048590;28;20150;-62
2021/10/16 03:31:46;;;;;;;12.80;5.97;;;;;;;9.36;100.00;99769.94;5044692;28;20090;-63
2021/10/16 03:34:31;;;;;;;13.52;6.78;;;;;;;9.46;100.00;99783.00;5064224;28;20140;-62
2021/10/16 03:37:17;;;;;;;12.32;5.88;;;;;;;9.46;100.00;99783.00;5065933;28;20067;-64
2021/10/16 03:40:02;;;;;;;;;;;;;;;9.49;100.00;99795.31;5066366;28;20046;-64
2021/10/16 03:42:47;;;;;;;22.80;7.10;;;;;;;9.44;100.00;99782.16;5070279;28;19946;-63
2021/10/16 03:45:35;;;;;;;11.15;5.57;;;;;;;9.36;100.00;99781.41;5064568;28;20043;-62
2021/10/16 03:48:20;;;;;;;15.30;6.80;;;;;;;9.36;100.00;99789.34;5066816;28;20478;-64
2021/10/16 03:51:04;;;;;;;12.60;6.68;;;;;;;9.45;100.00;99791.84;5045301;28;20094;-62
2021/10/16 03:53:50;;;;;;;15.20;7.40;;;;;;;9.50;100.00;99791.78;5031065;28;20052;-63
2021/10/16 03:56:35;;;;;;;14.80;6.13;;;;;;;9.49;100.00;99803.25;5066906;28;20520;-65
2021/10/16 03:59:22;;;;;;;13.27;7.47;;;;;;;9.49;100.00;99788.25;5068041;28;20488;-64
2021/10/16 04:02:08;;;;;;;11.82;7.18;;;;;;;9.49;100.00;99784.72;5064519;28;20046;-65
2021/10/16 04:04:54;;;;;;;10.88;6.60;;;;;;;9.49;100.00;99782.97;5059043;28;20589;-66
2021/10/16 04:07:38;;;;;;;11.07;6.72;;;;;;;9.52;100.00;99785.56;5062932;28;20040;-62
2021/10/16 04:10:23;;;;;;;14.90;7.47;;;;;;;9.56;100.00;99791.66;5064069;28;20109;-66
2021/10/16 04:13:09;;;;;;;11.93;6.68;;;;;;;9.52;100.00;99797.91;5063125;28;20055;-61
2021/10/16 04:16:02;;;;;;;11.30;5.95;;;;;;;9.46;100.00;99777.69;5034505;28;20127;-61
2021/10/16 04:18:47;;;;;;;12.63;6.00;;;;;;;9.58;100.00;99787.25;5045526;28;20052;-62
2021/10/16 04:21:32;;;;;;;10.32;6.85;;;;;;;9.57;100.00;99790.75;5055571;28;20147;-63
2021/10/16 04:24:20;;;;;;;14.73;7.10;;;;;;;9.56;100.00;99786.38;5064285;28;20051;-61
2021/10/16 04:27:05;;;;;;;17.00;7.78;;;;;;;9.57;100.00;99789.00;5045736;28;20043;-63
2021/10/16 04:29:53;;;;;;;11.30;6.15;;;;;;;9.55;100.00;99797.88;5059692;28;20063;-63
2021/10/16 04:32:47;;;;;;;12.98;6.63;;;;;;;9.61;100.00;99794.25;5048352;28;20116;-63
2021/10/16 04:35:32;;;;;;;12.73;7.53;;;;;;;9.69;100.00;99789.72;5064157;28;20064;-62
2021/10/16 04:38:16;;;;;;;11.60;6.97;;;;;;;9.65;100.00;99795.97;5058825;28;20843;-63
2021/10/16 04:41:03;;;;;;;14.63;6.75;;;;;;;9.64;100.00;99791.56;5053562;28;20086;-57
2021/10/16 04:43:47;;;;;;;14.20;6.93;;;;;;;9.63;100.00;99790.69;5055847;28;20047;-60
2021/10/16 04:46:32;;;;;;;12.43;6.53;;;;;;;9.61;100.00;99787.16;5048088;28;20480;-67
2021/10/16 04:49:22;;;;;;;11.60;6.30;;;;;;;9.61;100.00;99778.38;5063883;28;20495;-66
2021/10/16 04:52:07;;;;;;;13.60;7.07;;;;;;;9.61;100.00;99781.88;5048932;28;20180;-59
2021/10/16 04:54:52;;;;;;;11.13;5.82;;;;;;;9.57;100.00;99783.72;5055176;28;20129;-61
2021/10/16 04:57:37;;;;;;;12.43;6.18;;;;;;;9.59;100.00;99773.94;5067508;28;20476;-63
2021/10/16 05:00:21;;;;;;;18.02;7.72;;;;;;;9.67;100.00;99771.19;5041526;28;20070;-70
2021/10/16 05:03:06;;;;;;;16.30;6.78;;;;;;;9.65;100.00;99774.78;5053529;28;20089;-64
2021/10/16 05:05:58;;;;;;;8.90;5.82;;;;;;;9.65;100.00;99769.47;5063010;28;20118;-62
2021/10/16 05:08:48;;;;;;;16.17;7.00;;;;;;;9.77;100.00;99770.13;5066607;28;20039;-63
2021/10/16 05:11:34;;;;;;;11.90;6.45;;;;;;;9.65;100.00;99772.97;5063749;28;20515;-58
2021/10/16 05:14:20;;;;;;;11.63;6.45;;;;;;;9.82;100.00;99780.66;5067494;28;20127;-74
2021/10/16 05:17:04;;;;;;;16.02;7.20;;;;;;;9.89;100.00;99775.22;5055002;28;20093;-62
2021/10/16 05:19:49;;;;;;;15.05;7.20;;;;;;;9.85;100.00;99784.13;5067877;28;20524;-60
2021/10/16 05:22:35;;;;;;;16.52;7.20;;;;;;;9.88;100.00;99768.19;5084198;28;20514;-58
2021/10/16 05:25:19;;;;;;;9.07;6.10;;;;;;;9.91;100.00;99756.66;5088201;28;20116;-61
2021/10/16 05:28:05;;;;;;;10.35;5.82;;;;;;;9.88;100.00;99754.09;5076230;28;20047;-56
2021/10/16 05:30:50;;;;;;;13.90;5.95;;;;;;;9.82;100.00;99764.78;5049452;28;20429;-61
2021/10/16 05:33:35;;;;;;;11.55;7.20;;;;;;;9.85;100.00;99749.69;5047596;28;20528;-61
2021/10/16 05:36:20;;;;;;;9.27;6.10;;;;;;;9.98;100.00;99750.38;5068410;28;20091;-63
2021/10/16 05:39:04;;;;;;;9.57;5.88;;;;;;;9.94;100.00;99743.38;5079685;28;20527;-62
2021/10/16 05:41:49;;;;;;;16.33;6.63;;;;;;;9.98;100.00;99750.38;5061699;28;20098;-57
2021/10/16 05:44:34;;;;;;;11.38;5.88;;;;;;;9.92;100.00;99751.34;5056213;28;20730;-58
2021/10/16 05:47:21;;;;;;;14.60;6.03;;;;;;;9.91;100.00;99748.72;5070017;28;20059;-65
2021/10/16 05:50:07;;;;;;;11.95;5.32;;;;;;;9.93;100.00;99744.28;5048826;28;20048;-62
2021/10/16 05:52:52;;;;;;;10.40;5.22;;;;;;;9.93;100.00;99737.19;5049725;28;20059;-65
2021/10/16 05:55:38;;;;;;;12.32;6.25;;;;;;;10.05;100.00;99731.69;5067976;28;20051;-57
2021/10/16 05:58:25;;;;;;;12.02;6.30;;;;;;;10.12;100.00;99728.03;5067214;28;20549;-62
2021/10/16 06:01:10;;;;;;;15.35;6.72;;;;;;;10.09;100.00;99724.59;5067595;28;20100;-60
2021/10/16 06:04:02;;;;;;;10.02;5.80;;;;;;;10.14;100.00;99722.72;5066788;28;20151;-61
2021/10/16 06:06:48;;;;;;;13.90;6.35;;;;;;;10.32;100.00;99736.47;5050693;28;20473;-60
2021/10/16 06:09:32;;;;;;;10.07;5.15;;;;;;;10.38;100.00;99730.19;5068936;28;20113;-57
2021/10/16 06:12:17;;;;;;;8.25;4.97;;;;;;;10.42;100.00;99723.91;5065413;28;20523;-65
2021/10/16 06:15:02;;;;;;;11.20;5.32;;;;;;;10.57;100.00;99727.16;5080912;28;20154;-59
2021/10/16 06:17:50;;;;;;;8.13;5.25;;;;;;;10.47;100.00;99725.59;5066650;28;20051;-58
2021/10/16 06:20:35;;;;;;;10.73;5.20;;;;;;;10.51;100.00;99718.44;5065978;28;20059;-67
2021/10/16 06:23:19;;;;;;;11.70;5.57;;;;;;;10.50;100.00;99719.34;5052269;28;20052;-63
2021/10/16 06:26:05;;;;;;;11.23;5.63;;;;;;;10.57;100.00;99744.84;5065268;28;20059;-62
2021/10/16 06:28:50;;;;;;;12.23;5.43;;;;;;;10.60;100.00;99723.56;5066411;28;20051;-61
2021/10/16 06:31:36;;;;;;;9.50;5.45;;;;;;;10.70;100.00;99722.44;5086146;28;20793;-63
2021/10/16 06:34:23;;;;;;;10.85;5.30;;;;;;;10.58;100.00;99730.66;5065058;28;20500;-61
2021/10/16 06:37:10;;;;;;;13.73;6.43;;;;;;;10.60;100.00;99710.31;5065394;28;20593;-60
2021/10/16 06:39:55;;;;;;;14.30;6.22;;;;;;;10.61;100.00;99710.28;5058327;28;20047;-60
2021/10/16 06:42:42;;;;;;;9.65;5.78;;;;;;;10.58;100.00;99712.97;5050521;28;20535;-61
2021/10/16 06:45:45;;;;;;;8.13;5.90;;;;;;;10.69;100.00;99716.28;5053402;28;20051;-63
2021/10/16 06:48:35;;;;;;;8.57;5.13;;;;;;;10.74;100.00;99714.41;5065047;28;20102;-62
2021/10/16 06:51:26;;;;;;;13.20;5.85;;;;;;;10.74;100.00;99722.38;5056055;28;20608;-64
2021/10/16 06:54:12;;;;;;;13.80;5.60;;;;;;;10.74;100.00;99717.06;5053751;28;20080;-62
2021/10/16 06:56:57;;;;;;;11.98;5.38;;;;;;;10.79;100.00;99719.59;5057613;28;20063;-67
2021/10/16 06:59:44;;;;;;;11.35;5.10;;;;;;;10.72;100.00;99697.63;5058805;28;20052;-59
2021/10/16 07:02:29;;;;;;;8.48;5.47;;;;;;;10.84;100.00;99709.78;5058927;28;20052;-63
2021/10/16 07:05:24;;;;;;;10.50;5.20;;;;;;;10.85;100.00;99722.13;5070803;28;20093;-63
2021/10/16 07:08:09;;;;;;;8.13;4.75;;;;;;;10.85;100.00;99706.22;5061684;28;20067;-60
2021/10/16 07:10:56;;;;;;;9.25;4.30;;;;;;;10.81;100.00;99723.09;5064165;28;20481;-65
2021/10/16 07:13:42;;;;;;;12.43;5.15;;;;;;;10.80;100.00;99724.88;5046718;28;20452;-62
2021/10/16 07:16:28;;;;;;;;;;;;;;;10.88;100.00;99724.72;5061490;28;20147;-61
2021/10/16 07:19:13;;;;;;;9.10;4.82;;;;;;;10.89;100.00;99707.88;5065058;28;19969;-61
2021/10/16 07:21:58;;;;;;;10.00;5.13;;;;;;;10.94;100.00;99700.69;5064877;28;20120;-65
2021/10/16 07:24:42;;;;;;;11.40;4.82;;;;;;;10.91;100.00;99687.53;5037320;28;20051;-70
2021/10/16 07:27:27;;;;;;;8.48;4.80;;;;;;;10.93;100.00;99704.25;5061617;28;20102;-60
2021/10/16 07:30:11;;;;;;;9.93;5.28;;;;;;;10.93;100.00;99697.19;5053170;28;20047;-59
2021/10/16 07:32:56;;;;;;;9.25;4.20;;;;;;;11.13;100.00;99699.38;5053742;28;20043;-67
2021/10/16 07:35:45;;;;;;;10.05;4.93;;;;;;;11.15;100.00;99703.72;5046514;28;20067;-60
2021/10/16 07:38:31;;;;;;;15.95;5.68;;;;;;;11.20;100.00;99701.84;5064080;28;20437;-61
2021/10/16 07:41:19;;;;;;;15.25;6.10;;;;;;;11.28;100.00;99704.31;5038920;28;20128;-62
2021/10/16 07:44:05;;;;;;;9.20;5.53;;;;;;;11.23;99.68;99693.81;5056773;28;20052;-67
2021/10/16 07:46:52;;;;;;;15.55;5.10;;;;;;;11.40;98.75;99696.06;5057429;28;20051;-63
2021/10/16 07:49:36;;;;;;;10.80;4.90;;;;;;;11.41;97.61;99719.03;5061571;28;20051;-62
2021/10/16 07:52:24;;;;;;;13.55;5.45;;;;;;;11.46;97.16;99703.84;5057040;28;20206;-63
2021/10/16 07:55:09;;;;;;;9.25;4.65;;;;;;;11.41;95.75;99706.66;5064574;28;20059;-59
2021/10/16 07:57:53;;;;;;;;;;;;;;;11.44;95.75;99690.63;5052867;28;20055;-69
2021/10/16 08:00:38;;;;;;;11.93;4.88;;;;;;;11.39;94.71;99696.97;5067536;28;19938;-63
2021/10/16 08:03:22;;;;;;;13.00;4.55;;;;;;;11.37;94.18;99706.75;5063059;28;20130;-64
2021/10/16 08:06:07;;;;;;;16.48;4.53;;;;;;;11.38;94.12;99690.78;5065027;28;20054;-63
2021/10/16 08:08:52;;;;;;;;;;;;;;;11.47;92.97;99690.56;5064680;28;20051;-63
2021/10/16 08:11:56;;;;;;;8.70;4.20;;;;;;;11.38;91.89;99688.13;5061779;28;20016;-59
2021/10/16 08:14:40;;;;;;;9.85;5.18;;;;;;;11.47;91.58;99689.69;5048467;28;20139;-65
2021/10/16 08:17:25;;;;;;;9.40;4.40;;;;;;;11.50;91.17;99693.13;5059885;28;20079;-73
2021/10/16 08:20:10;;;;;;;14.60;4.82;;;;;;;11.53;90.94;99695.72;5056184;28;20055;-65
2021/10/16 08:22:55;;;;;;;12.57;5.10;;;;;;;11.63;90.99;99691.94;5046626;28;20503;-70
2021/10/16 08:25:41;;;;;;;12.10;4.93;;;;;;;11.67;90.15;99685.63;5062511;28;20090;-69
2021/10/16 08:28:31;;;;;;;19.75;5.18;;;;;;;11.80;89.93;99691.53;5051049;28;20492;-64
2021/10/16 08:31:17;;;;;;;13.13;4.55;;;;;;;11.85;89.01;99693.16;5058881;28;20099;-64
2021/10/16 08:34:02;;;;;;;13.48;5.30;;;;;;;11.91;88.47;99676.19;5053134;28;20520;-62
2021/10/16 08:36:47;;;;;;;8.23;4.78;;;;;;;11.96;88.16;99677.81;5057709;28;20104;-66
2021/10/16 08:39:31;;;;;;;9.48;4.75;;;;;;;12.03;87.83;99681.16;5062900;28;20507;-68
2021/10/16 08:42:16;;;;;;;6.95;3.97;;;;;;;12.06;86.53;99684.59;5063078;28;20090;-60
2021/10/16 08:45:02;;;;;;;7.95;4.60;;;;;;;12.20;86.36;99695.72;5044656;28;20055;-67
2021/10/16 08:47:47;;;;;;;6.85;4.10;;;;;;;12.09;83.60;99697.81;5057864;28;20526;-64
2021/10/16 08:50:34;;;;;;;10.32;4.38;;;;;;;12.06;82.65;99697.88;5064279;28;20173;-65
2021/10/16 08:53:18;;;;;;;11.23;4.40;;;;;;;12.14;82.63;99687.03;5063942;28;20051;-62
2021/10/16 08:56:06;;;;;;;11.05;5.15;;;;;;;12.10;81.72;99696.00;5064239;28;20094;-63
2021/10/16 08:58:51;;;;;;;8.30;4.55;;;;;;;12.16;81.20;99685.22;5063398;28;20075;-69
2021/10/16 09:01:56;;;;;;;12.40;4.35;;;;;;;12.27;80.43;99707.91;5059387;28;20155;-68
2021/10/16 09:04:41;;;;;;;15.60;5.00;;;;;;;12.24;79.30;99675.25;5049810;28;20048;-69
2021/10/16 09:07:27;;;;;;;7.10;4.22;;;;;;;12.17;78.87;99673.66;5054606;28;20181;-72
2021/10/16 09:10:23;;;;;;;10.00;4.80;;;;;;;12.17;78.96;99678.97;5063275;28;20063;-66
2021/10/16 09:13:08;;;;;;;12.73;5.35;;;;;;;12.21;78.27;99688.59;5043685;28;20466;-66
2021/10/16 09:15:53;;;;;;;10.02;4.78;;;;;;;12.26;77.44;99681.41;5063385;28;20067;-65
2021/10/16 09:18:37;;;;;;;8.07;4.60;;;;;;;12.31;76.88;99685.66;5069139;28;20079;-67
2021/10/16 09:21:24;;;;;;;7.78;4.45;;;;;;;12.38;76.75;99694.34;5060943;28;20052;-69
2021/10/16 09:24:16;;;;;;;11.18;4.97;;;;;;;12.40;76.20;99681.88;5055860;28;20052;-62
2021/10/16 09:27:13;;;;;;;10.18;4.45;;;;;;;12.42;74.73;99696.00;5056781;28;20098;-65
2021/10/16 09:30:05;;;;;;;8.90;4.53;;;;;;;12.60;73.99;99704.31;5042369;28;20067;-64
2021/10/16 09:32:56;;;;;;;8.07;4.47;;;;;;;12.72;73.55;99682.66;5056279;28;20106;-67
2021/10/16 09:35:42;;;;;;;9.60;5.15;;;;;;;12.67;72.40;99679.25;5062509;28;20059;-64
2021/10/16 09:38:40;;;;;;;12.38;4.88;;;;;;;12.70;71.54;99667.69;5059183;28;20052;-68
2021/10/16 09:41:33;;;;;;;9.65;4.25;;;;;;;12.69;70.55;99700.50;5055971;28;20059;-69
2021/10/16 09:44:26;;;;;;;8.18;4.40;;;;;;;12.71;69.70;99680.06;5038384;28;20052;-69
2021/10/16 09:47:17;;;;;;;10.15;4.30;;;;;;;12.78;68.61;99694.94;5050724;28;20088;-70
2021/10/16 09:50:11;;;;;;;9.88;4.82;;;;;;;12.87;69.22;99681.34;5073203;28;20527;-64
2021/10/16 09:52:55;;;;;;;8.35;4.75;;;;;;;12.76;67.83;99686.09;5060676;28;20063;-70
2021/10/16 09:55:40;;;;;;;6.80;4.80;;;;;;;12.89;68.69;99659.06;5059499;28;20121;-64
2021/10/16 09:58:26;;;;;;;11.60;4.80;;;;;;;12.98;68.49;99663.28;5055882;28;20063;-65
2021/10/16 10:01:11;;;;;;;8.10;4.97;;;;;;;13.00;68.01;99646.34;5064537;28;20055;-65
2021/10/16 10:03:57;;;;;;;13.27;5.43;;;;;;;13.17;68.30;99646.66;5063214;28;20054;-66
2021/10/16 10:06:43;;;;;;;7.97;4.13;;;;;;;13.15;66.62;99640.53;5066769;28;20103;-65
2021/10/16 10:09:32;;;;;;;10.07;4.55;;;;;;;13.35;66.32;99637.22;5057965;28;20099;-69
2021/10/16 10:12:17;;;;;;;8.98;5.07;;;;;;;13.19;65.10;99649.28;5061243;28;20048;-69
2021/10/16 10:15:01;;;;;;;9.95;4.95;;;;;;;13.21;65.17;99640.31;5054052;28;20137;-68
2021/10/16 10:17:48;;;;;;;10.88;4.93;;;;;;;13.14;63.75;99632.59;5075803;28;20068;-70
2021/10/16 10:20:33;;;;;;;7.18;4.70;;;;;;;13.17;63.70;99645.78;5060785;28;20050;-69
2021/10/16 10:23:24;;;;;;;10.50;4.97;;;;;;;13.16;63.41;99628.06;5060156;28;20043;-69
2021/10/16 10:26:30;;;;;;;8.30;4.40;;;;;;;13.20;63.59;99648.34;5071403;28;20097;-66
2021/10/16 10:29:22;;;;;;;10.27;5.28;;;;;;;13.17;62.95;99638.69;5070971;28;20428;-71
2021/10/16 10:32:16;;;;;;;12.45;5.40;;;;;;;13.28;62.59;99627.66;5067053;28;20523;-68
2021/10/16 10:35:04;;;;;;;8.80;5.00;;;;;;;13.28;62.13;99638.31;5058251;28;20111;-68
2021/10/16 10:37:52;;;;;;;14.45;5.70;;;;;;;13.42;62.82;99644.94;5061306;28;20142;-66
2021/10/16 10:40:40;;;;;;;10.05;4.70;;;;;;;13.37;61.81;99628.25;5058746;28;20086;-66
2021/10/16 10:43:40;;;;;;;8.98;4.72;;;;;;;13.40;61.75;99622.81;5051928;28;20485;-68
2021/10/16 10:46:28;;;;;;;13.73;5.30;;;;;;;13.43;62.01;99648.47;5069664;28;20567;-69
2021/10/16 10:49:14;;;;;;;7.68;4.97;;;;;;;13.47;61.05;99636.78;5053983;28;20080;-65
2021/10/16 10:52:04;;;;;;;11.38;4.40;;;;;;;13.44;60.42;99660.88;5075388;28;20412;-65
2021/10/16 10:55:05;;;;;;;8.45;5.18;;;;;;;13.53;59.83;99652.59;5077244;28;20051;-64
2021/10/16 10:57:59;;;;;;;11.43;4.82;;;;;;;13.53;60.32;99637.47;5052691;28;20455;-66
2021/10/16 11:00:44;;;;;;;7.20;4.50;;;;;;;13.52;60.13;99642.84;5060928;28;20046;-66
2021/10/16 11:04:24;;;;;;;8.80;4.78;;;;;;;13.63;59.90;99638.91;5069674;28;20182;-63
2021/10/16 11:08:16;;;;;;;8.77;4.65;;;;;;;13.61;59.85;99634.56;5067567;28;20083;-67
2021/10/16 11:11:17;;;;;;;9.18;4.93;;;;;;;13.57;59.33;99632.91;5054803;28;20059;-65
2021/10/16 11:14:08;;;;;;;;;;;;;;;13.62;59.29;99623.81;5067012;28;20174;-68
2021/10/16 11:17:18;;;;;;;7.05;4.35;;;;;;;13.52;59.51;99619.75;5054193;28;19923;-64
2021/10/16 11:20:13;;;;;;;7.82;4.53;;;;;;;13.54;59.07;99614.38;5051670;28;20110;-75
2021/10/16 11:23:07;;;;;;;9.27;4.45;;;;;;;13.66;58.87;99632.59;5046166;28;20140;-68
2021/10/16 11:26:05;;;;;;;9.30;4.78;;;;;;;13.70;58.97;99615.56;5042067;28;20162;-69
2021/10/16 11:28:58;;;;;;;9.07;4.55;;;;;;;13.70;58.45;99619.09;5066636;28;20055;-67
2021/10/16 11:31:48;;;;;;;12.80;5.15;;;;;;;13.75;58.64;99618.94;5050640;28;20132;-75
2021/10/16 11:35:07;;;;;;;15.80;4.82;;;;;;;13.68;58.76;99620.94;5051571;28;20066;-67
2021/10/16 11:37:54;;;;;;;10.85;5.25;;;;;;;13.66;58.89;99616.59;5059666;28;20050;-69
2021/10/16 11:40:43;;;;;;;10.05;4.90;;;;;;;13.59;58.79;99607.97;5061331;28;20051;-69
2021/10/16 11:43:34;;;;;;;9.85;5.20;;;;;;;13.54;59.27;99611.69;5079052;28;20054;-76
2021/10/16 11:46:24;;;;;;;9.35;4.60;;;;;;;13.54;59.63;99614.38;5052572;28;20071;-62
2021/10/16 11:49:08;;;;;;;7.22;4.03;;;;;;;13.55;59.14;99618.75;5044700;28;20095;-64
2021/10/16 11:51:53;;;;;;;8.73;5.07;;;;;;;13.59;59.13;99605.28;5059871;28;20519;-65
2021/10/16 11:54:37;;;;;;;10.65;5.30;;;;;;;13.61;59.96;99607.91;5058909;28;20118;-70
2021/10/16 11:57:26;;;;;;;10.68;5.10;;;;;;;13.73;60.27;99613.66;5063779;28;20059;-72
2021/10/16 12:00:28;;;;;;;10.93;4.80;;;;;;;13.66;60.34;99606.78;5073036;28;20188;-69
2021/10/16 12:03:28;;;;;;;11.20;5.30;;;;;;;13.66;60.65;99611.28;5064934;28;20048;-67
2021/10/16 12:06:18;;;;;;;10.05;5.35;;;;;;;13.73;60.88;99612.81;5062498;28;20093;-67
2021/10/16 12:09:04;;;;;;;9.02;5.53;;;;;;;13.66;61.22;99605.94;5064688;28;20089;-66
2021/10/16 12:12:00;;;;;;;9.93;4.70;;;;;;;13.70;61.03;99619.09;5062531;28;20404;-67
2021/10/16 12:14:45;;;;;;;10.07;5.07;;;;;;;13.60;59.82;99616.81;5040706;28;20055;-67
2021/10/16 12:17:31;;;;;;;12.38;5.20;;;;;;;13.64;59.23;99602.44;5057536;28;20059;-71
2021/10/16 12:20:16;;;;;;;12.15;5.85;;;;;;;13.61;58.97;99597.25;5065474;28;20490;-69
2021/10/16 12:23:01;;;;;;;10.68;5.07;;;;;;;13.55;58.37;99605.44;5067556;28;20495;-71
2021/10/16 12:25:55;;;;;;;12.70;5.82;;;;;;;13.66;57.63;99592.63;5055887;28;20056;-70
2021/10/16 12:28:43;;;;;;;12.07;5.30;;;;;;;13.67;57.74;99599.69;5059488;28;20110;-69
2021/10/16 12:31:28;;;;;;;12.23;4.95;;;;;;;13.64;58.10;99597.13;5057271;28;20573;-69
2021/10/16 12:34:32;;;;;;;12.70;6.03;;;;;;;13.67;57.96;99605.00;5057975;28;20431;-66
2021/10/16 12:37:17;;;;;;;9.48;5.20;;;;;;;13.67;57.36;99597.91;5059154;28;20102;-66
2021/10/16 12:40:06;;;;;;;;;;;;;;;13.71;57.82;99599.53;5057616;28;20530;-66
2021/10/16 12:42:52;;;;;;;7.25;4.45;;;;;;;13.77;57.42;99603.78;5055451;28;19927;-66
2021/10/16 12:45:40;;;;;;;10.63;4.57;;;;;;;13.73;57.08;99608.31;5053071;28;20063;-65
2021/10/16 12:48:34;;;;;;;9.38;4.97;;;;;;;13.68;56.27;99604.09;5054875;28;20043;-64
2021/10/16 12:51:44;;;;;;;11.07;4.43;;;;;;;13.70;55.31;99596.91;5056542;28;20579;-65
2021/10/16 12:54:39;;;;;;;9.00;4.22;;;;;;;13.60;54.33;99601.69;5054784;28;20399;-64
2021/10/16 12:57:26;;;;;;;11.02;4.22;;;;;;;13.52;54.57;99624.19;5053709;28;20504;-66
2021/10/16 13:00:13;;;;;;;8.35;4.60;;;;;;;13.45;54.90;99604.00;5053455;28;20544;-65
2021/10/16 13:02:57;;;;;;;7.63;4.45;;;;;;;13.45;55.09;99604.00;5059251;28;20516;-67
2021/10/16 13:05:44;;;;;;;7.13;4.60;;;;;;;13.36;54.94;99578.56;5052926;28;20132;-69